Nearby METAR Reports

 

KMTN - Baltimore/Martin, Maryland, USA
Distance from station: SSE 8mi, 13km
Updated: Sun, 31-Aug-2014 2:03am EDT
Overcast
Overcast
 Wind from SE
Wind: SE 8 mph , 13 km/h
Temperature: 77°F , 25°C
Dew Point: 73°F , 23°C
Humidity: 89%
Barometer: 30.14 inHg , 1020.7 hPa
Clouds: Overcast
Visibility: 10 miles , 16 km
Cloud details: Overcast 1100 ft
2014/08/31 06:03 KMTN 310603Z AUTO 14007KT 10SM OVC011 25/23 A3014 RMK AO2
KDMH - Baltimore/Dwntwn, Maryland, USA
Distance from station: SW 12mi, 19km
Updated: Sun, 31-Aug-2014 1:54am EDT

 
Temperature: 77°F , 25°C
Dew Point: 72°F , 22°C
Humidity: 83%
Barometer: 30.13 inHg , 1020.3 hPa
2014/08/31 05:54 KDMH 310554Z AUTO 25/22 A3013 RMK AO1 SLP201 T02500222 10261 20250 58005
 
KBWI - Balto/Wash Intl, Maryland, USA
Distance from station: SSW 20mi, 33km
Updated: Sun, 31-Aug-2014 1:54am EDT
Overcast
Overcast
 Wind from calm
Wind: Calm
Temperature: 75°F , 24°C
Dew Point: 72°F , 22°C
Humidity: 89%
Barometer: 30.12 inHg , 1020 hPa
Clouds: Overcast
Visibility: 10 miles , 16 km
Cloud details: Mostly cloudy 900 ft
Overcast 3000 ft
2014/08/31 05:54 KBWI 310554Z 00000KT 10SM BKN009 OVC030 24/22 A3012 RMK AO2 SLP199 T02390217 10250 20233 57004
KDMW - Carroll Cnty, Maryland, USA
Distance from station: WNW 30mi, 48km
Updated: Sun, 31-Aug-2014 2:00am EDT
Overcast
Overcast
 Wind from S
Wind: S 8 mph , 13 km/h
Temperature: 73°F , 23°C
Dew Point: 72°F , 22°C
Humidity: 94%
Barometer: 30.14 inHg , 1020.7 hPa
Clouds: Overcast
Visibility: 10 miles , 16 km
Cloud details: Mostly cloudy 700 ft
Overcast 2200 ft
2014/08/31 06:00 KDMW 310600Z AUTO 17007KT 10SM BKN007 OVC022 23/22 A3014 RMK AO2
 
KNAK - Annapolis/Naval, Maryland, USA
Distance from station: S 30mi, 48km
Updated: Sun, 31-Aug-2014 1:54am EDT
Mostly cloudy
Mostly cloudy
 Wind from SSE
Wind: SSE 7 mph , 11 km/h
Temperature: 77°F , 25°C
Dew Point: 73°F , 23°C
Humidity: 89%
Barometer: 30.12 inHg , 1020 hPa
Clouds: Mostly cloudy
Visibility: 10 miles , 16 km
Cloud details: Partly cloudy 1500 ft
Mostly cloudy 4200 ft
2014/08/31 05:54 KNAK 310554Z AUTO 16006KT 10SM SCT015 BKN042 25/23 A3012 RMK AO2 SLP201 T02500228 10256 20244 58006
KW29 - Stevensville, Maryland, USA
Distance from station: SSE 31mi, 50km
Updated: Sun, 31-Aug-2014 2:03am EDT

 Wind from SSE
Wind: SSE 7 mph , 11 km/h
Temperature: 73°F , 23°C
Dew Point: 72°F , 22°C
Humidity: 94%
Barometer: 30.13 inHg , 1020.3 hPa
Visibility: 10 miles , 16 km
2014/08/31 06:03 KW29 310603Z AUTO 15006KT 10SM 23/22 A3013 RMK AO1
 
KCGS - College Park, Maryland, USA
Distance from station: SW 38mi, 61km
Updated: Sun, 31-Aug-2014 2:00am EDT
Mostly cloudy
Mostly cloudy
 Wind from calm
Wind: Calm
Temperature: 77°F , 25°C
Dew Point: 73°F , 23°C
Humidity: 89%
Barometer: 30.12 inHg , 1020 hPa
Clouds: Mostly cloudy
Visibility: 10 miles , 16 km
Cloud details: Partly cloudy 1000 ft
Mostly cloudy 3700 ft
Mostly cloudy 4400 ft
2014/08/31 06:00 KCGS 310600Z AUTO 00000KT 10SM SCT010 BKN037 BKN044 25/23 A3012 RMK AO1
KGAI - Gaithersburg, Maryland, USA
Distance from station: WSW 40mi, 65km
Updated: Sun, 31-Aug-2014 1:55am EDT
Partly cloudy
Partly cloudy
 Wind from SSE
Wind: SSE 5 mph , 7 km/h
Temperature: 73°F , 23°C
Dew Point: 70°F , 21°C
Humidity: 89%
Barometer: 30.17 inHg , 1021.7 hPa
Clouds: Partly cloudy
Visibility: 10 miles , 16 km
Cloud details: Few Clouds 2900 ft
Partly cloudy 3600 ft
2014/08/31 05:55 KGAI 310555Z AUTO 15004KT 10SM FEW029 SCT036 23/21 A3017 RMK AO1 10240 20220 57003
 
KTHV - York, Pennsylvania, USA
Distance from station: NNW 40mi, 65km
Updated: Sun, 31-Aug-2014 2:10am EDT
Mostly cloudy
Mostly cloudy
 Wind from calm
Wind: Calm
Temperature: 73°F , 23°C
Dew Point: 70°F , 21°C
Humidity: 89%
Barometer: 30.11 inHg , 1019.6 hPa
Clouds: Mostly cloudy
Visibility: 10 miles , 16 km
Cloud details: Mostly cloudy 2700 ft
2014/08/31 06:10 KTHV 310610Z AUTO 00000KT 10SM BKN027 23/21 A3011 RMK AO2 T02330211
KFDK - Frederick, Maryland, USA
Distance from station: W 47mi, 75km
Updated: Sun, 31-Aug-2014 2:00am EDT
Overcast
Overcast
 Wind from calm
Wind: Calm
Barometer: 30.14 inHg , 1020.7 hPa
Clouds: Overcast
Visibility: 10 miles , 16 km
Cloud details: Mostly cloudy 1500 ft
Overcast 2500 ft
2014/08/31 06:00 KFDK 310600Z AUTO 00000KT 10SM BKN015 OVC025 A3014 RMK AO2
 
KESN - Easton/Newnam, Maryland, USA
Distance from station: SSE 48mi, 78km
Updated: Sun, 31-Aug-2014 2:15am EDT
Clear
Clear
 Wind from S
Wind: S 5 mph , 7 km/h
Temperature: 73°F , 23°C
Dew Point: 73°F , 23°C
Humidity: 100%
Barometer: 30.17 inHg , 1021.7 hPa
Clouds: Clear
Visibility: 10 miles , 16 km
2014/08/31 06:15 KESN 310615Z AUTO 18004KT 10SM CLR 23/23 A3017 RMK AO2 T02330233
KDCA - Washington/Natl, Washington D.c., USA
Distance from station: SW 49mi, 79km
Updated: Sun, 31-Aug-2014 1:52am EDT
Partly cloudy
Partly cloudy
 Wind from S
Wind: S 6 mph , 9 km/h
Temperature: 77°F , 25°C
Dew Point: 72°F , 22°C
Humidity: 83%
Barometer: 30.13 inHg , 1020.3 hPa
Clouds: Partly cloudy
Visibility: 10 miles , 16 km
Cloud details: Few Clouds 1200 ft
Partly cloudy 25000 ft
2014/08/31 05:52 KDCA 310552Z 18005KT 10SM FEW012 SCT250 25/22 A3013 RMK AO2 SLP201 T02500222 10272 20250 58004
 
KLNS - Lancaster, Pennsylvania, USA
Distance from station: N 49mi, 79km
Updated: Sun, 31-Aug-2014 1:53am EDT
Overcast
Overcast
 Wind from SSE
Wind: SSE 7 mph , 11 km/h
Temperature: 72°F , 22°C
Dew Point: 66°F , 19°C
Humidity: 83%
Barometer: 30.12 inHg , 1020 hPa
Clouds: Overcast
Visibility: 10 miles , 16 km
Cloud details: Overcast 1400 ft
2014/08/31 05:53 KLNS 310553Z AUTO 15006KT 10SM OVC014 22/19 A3012 RMK AO2 SLP197 T02220194 10233 20211 56006 $
KILG - Wilmington, Delaware, USA
Distance from station: ENE 50mi, 81km
Updated: Sun, 31-Aug-2014 1:51am EDT
Overcast
Overcast
 Wind from S
Wind: S 8 mph , 13 km/h
Temperature: 73°F , 23°C
Dew Point: 66°F , 19°C
Humidity: 78%
Barometer: 30.15 inHg , 1021 hPa
Clouds: Overcast
Visibility: 10 miles , 16 km
Cloud details: Mostly cloudy 3200 ft
Overcast 4900 ft
2014/08/31 05:51 KILG 310551Z AUTO 18007KT 10SM BKN032 OVC049 23/19 A3015 RMK AO2 SLP207 T02330194 10244 20228 58007